Time;durP1;ratioP1;P1;durP2;ratioP2;P2;SDS_P1;SDS_P2;PMS_P1;PMS_P2;Temp;Humidity;BMP_temperature;BMP_pressure;BME280_temperature;BME280_humidity;BME280_pressure;Samples;Min_cycle;Max_cycle;Signal;HPM_P1;HPM_P2
2023/10/27 00:00:57;;;;;;;7.25;2.40;;;;;;;9.20;100.00;97838.53;5061571;28;20048;-45
2023/10/27 00:03:24;;;;;;;5.80;2.47;;;;;;;9.18;100.00;97850.00;5078243;28;20083;-46
2023/10/27 00:05:51;;;;;;;6.65;2.30;;;;;;;9.16;100.00;97849.59;5085619;28;20047;-45
2023/10/27 00:08:18;;;;;;;11.05;2.75;;;;;;;9.14;100.00;97848.44;5083466;28;20044;-46
2023/10/27 00:10:44;;;;;;;8.95;3.35;;;;;;;9.13;100.00;97842.13;5086751;28;20490;-45
2023/10/27 00:13:11;;;;;;;6.55;2.53;;;;;;;9.10;100.00;97844.94;5086986;28;20039;-45
2023/10/27 00:15:38;;;;;;;13.93;3.22;;;;;;;9.07;100.00;97834.69;5086998;28;20601;-44
2023/10/27 00:18:05;;;;;;;6.72;2.35;;;;;;;9.01;100.00;97848.16;5087511;28;20047;-44
2023/10/27 00:20:32;;;;;;;5.95;3.25;;;;;;;8.97;100.00;97839.13;5087003;28;20143;-44
2023/10/27 00:22:59;;;;;;;5.43;2.55;;;;;;;8.91;100.00;97837.97;5087132;28;20040;-44
2023/10/27 00:25:25;;;;;;;6.28;3.20;;;;;;;8.86;100.00;97841.16;5085978;28;20062;-44
2023/10/27 00:27:52;;;;;;;7.40;3.10;;;;;;;8.84;100.00;97832.47;5076416;28;20119;-45
2023/10/27 00:30:20;;;;;;;8.73;3.78;;;;;;;8.81;100.00;97838.84;5086494;28;20127;-45
2023/10/27 00:32:47;;;;;;;8.43;3.63;;;;;;;8.80;100.00;97833.69;5084133;28;20139;-44
2023/10/27 00:35:14;;;;;;;6.00;2.95;;;;;;;8.80;100.00;97828.97;5081654;28;20039;-45
2023/10/27 00:37:41;;;;;;;3.80;2.85;;;;;;;8.79;100.00;97830.16;5086718;28;20048;-44
2023/10/27 00:40:09;;;;;;;16.92;4.53;;;;;;;8.79;100.00;97824.63;5087128;28;20044;-44
2023/10/27 00:42:35;;;;;;;12.63;3.15;;;;;;;8.75;100.00;97829.41;5086705;28;20047;-44
2023/10/27 00:45:04;;;;;;;7.15;2.50;;;;;;;8.74;100.00;97822.31;5085856;28;20048;-44
2023/10/27 00:47:31;;;;;;;9.18;3.65;;;;;;;8.72;100.00;97829.41;5078133;28;20835;-45
2023/10/27 00:49:58;;;;;;;11.00;2.92;;;;;;;8.74;100.00;97838.06;5086937;28;20044;-44
2023/10/27 00:52:27;;;;;;;8.93;2.63;;;;;;;8.70;100.00;97827.06;5087167;28;20139;-46
2023/10/27 00:54:55;;;;;;;8.35;3.33;;;;;;;8.68;100.00;97829.47;5086280;28;20042;-45
2023/10/27 00:57:23;;;;;;;9.10;3.42;;;;;;;8.66;100.00;97820.78;5081044;28;20040;-48
2023/10/27 00:59:52;;;;;;;9.13;2.40;;;;;;;8.65;100.00;97826.72;5086639;28;20036;-44
2023/10/27 01:02:21;;;;;;;6.75;2.80;;;;;;;8.64;100.00;97828.69;5086779;28;20060;-46
2023/10/27 01:04:48;;;;;;;7.97;2.97;;;;;;;8.61;100.00;97832.25;5086536;28;20043;-46
2023/10/27 01:07:16;;;;;;;10.70;2.80;;;;;;;8.58;100.00;97830.28;5086559;28;20044;-47
2023/10/27 01:09:43;;;;;;;5.95;3.15;;;;;;;8.61;100.00;97835.00;5086398;28;20033;-48
2023/10/27 01:12:11;;;;;;;10.63;3.75;;;;;;;8.61;100.00;97826.72;5086028;28;20177;-48
2023/10/27 01:14:38;;;;;;;6.93;3.13;;;;;;;8.56;100.00;97838.19;5073381;28;20044;-45
2023/10/27 01:17:05;;;;;;;6.20;3.97;;;;;;;8.54;100.00;97826.78;5086247;28;20093;-46
2023/10/27 01:19:35;;;;;;;10.68;3.03;;;;;;;8.49;100.00;97825.22;5086513;28;20044;-44
2023/10/27 01:22:03;;;;;;;8.05;4.10;;;;;;;8.47;100.00;97826.81;5086092;28;20066;-44
2023/10/27 01:24:30;;;;;;;9.77;4.80;;;;;;;8.44;100.00;97830.38;5089450;28;20048;-45
2023/10/27 01:26:57;;;;;;;9.55;4.45;;;;;;;8.46;100.00;97822.47;5090206;28;20394;-44
2023/10/27 01:29:27;;;;;;;10.50;4.53;;;;;;;8.41;100.00;97823.69;5090474;28;20447;-44
2023/10/27 01:31:55;;;;;;;10.82;4.20;;;;;;;8.40;100.00;97830.38;5085922;28;20428;-44
2023/10/27 01:34:22;;;;;;;10.02;4.10;;;;;;;8.40;100.00;97832.34;5055715;28;20520;-46
2023/10/27 01:36:49;;;;;;;6.57;3.25;;;;;;;8.37;100.00;97830.38;5088263;28;20750;-44
2023/10/27 01:39:17;;;;;;;7.55;3.08;;;;;;;8.34;100.00;97837.50;5080494;28;20040;-44
2023/10/27 01:41:44;;;;;;;6.47;2.75;;;;;;;8.38;100.00;97837.47;5068264;28;20044;-45
2023/10/27 01:44:10;;;;;;;12.55;3.15;;;;;;;8.36;100.00;97831.59;5085058;28;20101;-44
2023/10/27 01:46:37;;;;;;;7.32;3.53;;;;;;;8.34;100.00;97831.97;5089019;28;20109;-46
2023/10/27 01:49:05;;;;;;;6.28;3.15;;;;;;;8.28;100.00;97839.13;5089781;28;20067;-45
2023/10/27 01:51:32;;;;;;;9.30;3.60;;;;;;;8.25;100.00;97834.38;5089724;28;20039;-45
2023/10/27 01:53:58;;;;;;;9.70;3.63;;;;;;;8.25;100.00;97844.59;5090070;28;20125;-45
2023/10/27 01:56:25;;;;;;;9.55;3.58;;;;;;;8.24;100.00;97837.50;5089242;28;20029;-45
2023/10/27 01:58:52;;;;;;;7.07;2.88;;;;;;;8.23;100.00;97836.75;5085561;28;20044;-44
2023/10/27 02:01:18;;;;;;;11.48;3.88;;;;;;;8.19;100.00;97832.41;5087260;28;20131;-45
2023/10/27 02:03:45;;;;;;;8.18;3.55;;;;;;;8.19;100.00;97835.97;5089183;28;20044;-44
2023/10/27 02:06:12;;;;;;;8.57;3.05;;;;;;;8.15;100.00;97842.69;5089147;28;20048;-46
2023/10/27 02:08:39;;;;;;;6.05;3.17;;;;;;;8.16;100.00;97830.44;5088597;28;20834;-44
2023/10/27 02:11:06;;;;;;;8.63;3.28;;;;;;;8.15;100.00;97826.94;5081846;28;20040;-45
2023/10/27 02:13:33;;;;;;;8.07;2.83;;;;;;;8.10;100.00;97826.56;5071359;28;20453;-45
2023/10/27 02:15:59;;;;;;;6.63;3.10;;;;;;;8.11;100.00;97828.13;5083731;28;20109;-45
2023/10/27 02:18:26;;;;;;;7.22;2.80;;;;;;;8.14;100.00;97816.28;5080794;28;20085;-44
2023/10/27 02:20:54;;;;;;;6.50;2.67;;;;;;;8.11;100.00;97820.63;5077155;28;20143;-46
2023/10/27 02:23:21;;;;;;;8.88;3.63;;;;;;;8.09;100.00;97819.47;5083430;28;20051;-44
2023/10/27 02:25:47;;;;;;;10.15;3.85;;;;;;;8.09;100.00;97819.47;5088062;28;20048;-45
2023/10/27 02:28:14;;;;;;;8.05;2.90;;;;;;;8.08;100.00;97824.19;5085059;28;20040;-44
2023/10/27 02:30:41;;;;;;;5.55;3.00;;;;;;;8.08;100.00;97818.69;5086962;28;20028;-46
2023/10/27 02:33:07;;;;;;;11.68;3.33;;;;;;;8.05;100.00;97810.44;5074677;28;20569;-45
2023/10/27 02:35:34;;;;;;;8.82;2.78;;;;;;;8.03;100.00;97804.53;5075985;28;20127;-44
2023/10/27 02:38:04;;;;;;;11.13;3.45;;;;;;;8.02;100.00;97798.25;5088829;28;20044;-46
2023/10/27 02:40:31;;;;;;;9.77;3.58;;;;;;;8.02;100.00;97802.97;5080231;28;20029;-44
2023/10/27 02:42:57;;;;;;;10.15;2.80;;;;;;;7.98;100.00;97803.78;5087680;28;20040;-44
2023/10/27 02:45:27;;;;;;;7.30;3.38;;;;;;;7.94;100.00;97794.72;5078759;28;20050;-47
2023/10/27 02:47:54;;;;;;;7.78;3.10;;;;;;;7.96;100.00;97802.59;5080481;28;20541;-46
2023/10/27 02:50:21;;;;;;;11.05;3.20;;;;;;;7.96;100.00;97805.34;5075965;28;20068;-47
2023/10/27 02:52:47;;;;;;;8.15;3.08;;;;;;;7.88;100.00;97799.09;5083735;28;20045;-48
2023/10/27 02:55:14;;;;;;;7.20;3.17;;;;;;;7.89;100.00;97800.66;5082606;28;20066;-45
2023/10/27 02:57:41;;;;;;;6.40;3.53;;;;;;;7.84;100.00;97792.78;5085432;28;20865;-45
2023/10/27 03:00:09;;;;;;;6.55;2.85;;;;;;;7.83;100.00;97798.72;5070697;28;20049;-45
2023/10/27 03:02:35;;;;;;;5.72;3.00;;;;;;;7.84;100.00;97792.78;5146473;22;20049;-44
2023/10/27 03:05:02;;;;;;;5.57;3.10;;;;;;;7.81;100.00;97796.34;5048221;28;20453;-44
2023/10/27 03:07:29;;;;;;;5.93;3.33;;;;;;;7.84;100.00;97787.28;5047384;28;20044;-45
2023/10/27 03:09:56;;;;;;;11.70;3.05;;;;;;;7.84;100.00;97787.28;5046421;28;20048;-45
2023/10/27 03:12:23;;;;;;;10.40;3.05;;;;;;;7.78;100.00;97794.38;5046390;28;20047;-43
2023/10/27 03:14:49;;;;;;;11.80;3.22;;;;;;;7.80;100.00;97794.00;5039631;28;20070;-43
2023/10/27 03:17:16;;;;;;;6.60;3.53;;;;;;;7.78;100.00;97799.13;5045986;28;20126;-44
2023/10/27 03:19:43;;;;;;;7.35;3.30;;;;;;;7.80;100.00;97791.25;5047817;28;20044;-45
2023/10/27 03:22:10;;;;;;;5.78;3.38;;;;;;;7.78;100.00;97788.88;5037157;28;20473;-43
2023/10/27 03:24:37;;;;;;;8.23;3.17;;;;;;;7.75;100.00;97788.91;5046837;28;20052;-43
2023/10/27 03:27:06;;;;;;;9.35;2.00;;;;;;;7.73;100.00;97786.53;5047363;28;20055;-45
2023/10/27 03:29:32;;;;;;;5.72;2.13;;;;;;;7.68;100.00;97781.44;5047436;28;20048;-44
2023/10/27 03:32:00;;;;;;;7.10;2.63;;;;;;;7.66;100.00;97791.28;5047145;28;20064;-43
2023/10/27 03:34:27;;;;;;;7.75;2.80;;;;;;;7.63;100.00;97776.34;5048003;28;20537;-42
2023/10/27 03:36:54;;;;;;;6.38;2.47;;;;;;;7.65;100.00;97779.47;5043304;28;20124;-44
2023/10/27 03:39:20;;;;;;;5.75;2.80;;;;;;;7.66;100.00;97778.28;5042907;28;20517;-44
2023/10/27 03:41:47;;;;;;;6.25;1.95;;;;;;;7.66;100.00;97775.53;5047362;28;20045;-46
2023/10/27 03:44:14;;;;;;;4.20;2.50;;;;;;;7.65;100.00;97778.72;5045833;28;20809;-43
2023/10/27 03:46:40;;;;;;;6.82;2.35;;;;;;;7.62;100.00;97774.78;5039848;28;20037;-43
2023/10/27 03:49:07;;;;;;;8.85;2.47;;;;;;;7.61;100.00;97770.44;5041619;28;20135;-44
2023/10/27 03:51:34;;;;;;;6.18;1.98;;;;;;;7.62;100.00;97777.53;5042861;28;20038;-43
2023/10/27 03:54:01;;;;;;;4.68;2.53;;;;;;;7.63;100.00;97772.78;5031221;28;20144;-42
2023/10/27 03:56:27;;;;;;;4.65;2.25;;;;;;;7.62;100.00;97776.75;5046170;28;20036;-44
2023/10/27 03:58:54;;;;;;;5.18;2.20;;;;;;;7.58;100.00;97771.25;5037217;28;20063;-44
2023/10/27 04:01:21;;;;;;;7.07;2.30;;;;;;;7.54;100.00;97775.97;5040505;28;20049;-43
2023/10/27 04:03:48;;;;;;;8.45;2.17;;;;;;;7.52;100.00;97770.06;5033776;28;20060;-42
2023/10/27 04:06:15;;;;;;;9.35;2.22;;;;;;;7.51;100.00;97771.25;5043926;28;20040;-44
2023/10/27 04:08:42;;;;;;;6.28;1.75;;;;;;;7.53;100.00;97766.13;5038808;28;20047;-45
2023/10/27 04:11:08;;;;;;;6.68;1.90;;;;;;;7.53;100.00;97760.63;5046345;28;20522;-46
2023/10/27 04:13:35;;;;;;;6.22;1.65;;;;;;;7.55;100.00;97774.78;5045588;28;20147;-47
2023/10/27 04:16:02;;;;;;;5.22;1.40;;;;;;;7.54;100.00;97767.72;5046273;28;20441;-44
2023/10/27 04:18:30;;;;;;;7.97;1.92;;;;;;;7.56;100.00;97770.06;5044355;28;20809;-43
2023/10/27 04:20:56;;;;;;;4.13;1.58;;;;;;;7.53;100.00;97771.66;5045951;28;20041;-45
2023/10/27 04:23:23;;;;;;;9.50;2.15;;;;;;;7.50;100.00;97766.94;5040682;28;20048;-42
2023/10/27 04:25:51;;;;;;;5.50;1.40;;;;;;;7.52;100.00;97763.78;5029150;28;20037;-44
2023/10/27 04:28:19;;;;;;;3.90;1.55;;;;;;;7.53;100.00;97773.59;5039693;28;20045;-46
2023/10/27 04:30:50;;;;;;;4.38;1.38;;;;;;;7.52;100.00;97772.81;5046693;28;20135;-45
2023/10/27 04:33:17;;;;;;;5.65;1.70;;;;;;;7.52;100.00;97772.81;5047193;28;20398;-44
2023/10/27 04:35:44;;;;;;;3.70;1.73;;;;;;;7.48;100.00;97780.31;5046163;28;20483;-44
2023/10/27 04:38:11;;;;;;;5.78;1.98;;;;;;;7.47;100.00;97784.22;5045486;28;20045;-43
2023/10/27 04:40:37;;;;;;;3.22;2.20;;;;;;;7.46;100.00;97777.19;5044794;28;20487;-44
2023/10/27 04:43:04;;;;;;;2.65;1.42;;;;;;;7.49;100.00;97775.59;5040813;28;20335;-44
2023/10/27 04:45:31;;;;;;;3.97;1.45;;;;;;;7.48;100.00;97774.81;5036375;28;20506;-45
2023/10/27 04:47:58;;;;;;;6.72;2.20;;;;;;;7.49;100.00;97783.84;5030643;28;20454;-44
2023/10/27 04:50:25;;;;;;;8.38;1.60;;;;;;;7.50;100.00;97769.69;5044224;28;20045;-48
2023/10/27 04:52:52;;;;;;;7.00;2.25;;;;;;;7.50;100.00;97772.44;5044358;28;20761;-43
2023/10/27 04:55:19;;;;;;;5.45;1.65;;;;;;;7.51;100.00;97779.53;5034365;28;20100;-50
2023/10/27 04:57:45;;;;;;;5.47;1.30;;;;;;;7.52;100.00;97775.56;5043818;28;20091;-45
2023/10/27 05:00:13;;;;;;;6.45;1.33;;;;;;;7.51;100.00;97768.50;5043593;28;20045;-45
2023/10/27 05:02:40;;;;;;;4.45;1.42;;;;;;;7.48;100.00;97763.78;5044206;28;20072;-45
2023/10/27 05:05:08;;;;;;;7.20;2.28;;;;;;;7.47;100.00;97772.44;5044295;28;20051;-43
2023/10/27 05:07:36;;;;;;;2.22;1.27;;;;;;;7.46;100.00;97765.38;5043080;28;20045;-43
2023/10/27 05:10:07;;;;;;;4.78;1.80;;;;;;;7.47;100.00;97764.19;5034798;28;20055;-43
2023/10/27 05:12:38;;;;;;;7.32;1.77;;;;;;;7.47;100.00;97770.47;5041992;28;20061;-44
2023/10/27 05:15:05;;;;;;;6.97;2.60;;;;;;;7.47;100.00;97767.72;5043234;28;20099;-44
2023/10/27 05:17:35;;;;;;;6.18;1.77;;;;;;;7.46;100.00;97771.69;5042710;28;20126;-44
2023/10/27 05:20:05;;;;;;;7.90;1.95;;;;;;;7.48;100.00;97776.78;5045044;28;20037;-45
2023/10/27 05:22:32;;;;;;;10.38;1.90;;;;;;;7.47;100.00;97766.94;5044816;28;20060;-43
2023/10/27 05:25:03;;;;;;;6.72;2.53;;;;;;;7.48;100.00;97769.31;5041692;28;20052;-44
2023/10/27 05:27:30;;;;;;;8.45;1.90;;;;;;;7.50;100.00;97766.94;5038755;28;20140;-45
2023/10/27 05:29:57;;;;;;;8.60;1.90;;;;;;;7.56;100.00;97772.81;5043649;28;20032;-43
2023/10/27 05:32:25;;;;;;;9.35;1.75;;;;;;;7.61;100.00;97773.19;5043306;28;20124;-44
2023/10/27 05:34:52;;;;;;;11.30;2.67;;;;;;;7.65;100.00;97764.94;5044575;28;20045;-45
2023/10/27 05:37:21;;;;;;;6.43;1.60;;;;;;;7.70;100.00;97781.06;5044618;28;20108;-44
2023/10/27 05:39:48;;;;;;;8.93;1.73;;;;;;;7.73;100.00;97775.50;5035868;28;20475;-43
2023/10/27 05:42:15;;;;;;;13.80;2.15;;;;;;;7.75;100.00;97773.16;5043449;28;20429;-43
2023/10/27 05:44:41;;;;;;;9.77;2.20;;;;;;;7.78;100.00;97769.59;5043582;28;20045;-45
2023/10/27 05:47:08;;;;;;;17.58;2.67;;;;;;;7.80;100.00;97764.50;5042847;28;20052;-43
2023/10/27 05:49:36;;;;;;;10.02;2.80;;;;;;;7.81;100.00;97766.03;5043943;28;20052;-43
2023/10/27 05:52:03;;;;;;;11.93;4.47;;;;;;;7.83;100.00;97765.66;5044201;28;20126;-43
2023/10/27 05:54:30;;;;;;;19.60;3.67;;;;;;;7.84;100.00;97769.97;5041223;28;20052;-45
2023/10/27 05:56:57;;;;;;;11.85;3.08;;;;;;;7.85;100.00;97774.31;5030760;28;20568;-44
2023/10/27 05:59:24;;;;;;;7.78;2.45;;;;;;;7.86;100.00;97768.38;5034418;28;20156;-44
2023/10/27 06:01:53;;;;;;;15.43;2.45;;;;;;;7.84;100.00;97776.28;5044340;28;20049;-44
2023/10/27 06:04:39;;;;;;;11.32;2.38;;;;;;;7.86;100.00;97762.13;5032413;28;20083;-43
2023/10/27 06:07:07;;;;;;;10.82;2.15;;;;;;;7.83;100.00;97763.69;5030473;28;20402;-45
2023/10/27 06:09:34;;;;;;;8.25;1.70;;;;;;;7.83;100.00;97769.22;5044602;28;20526;-44
2023/10/27 06:12:01;;;;;;;14.43;2.70;;;;;;;7.81;100.00;97759.78;5044959;28;20048;-43
2023/10/27 06:14:29;;;;;;;12.40;2.97;;;;;;;7.81;100.00;97766.03;5042325;28;20040;-43
2023/10/27 06:16:56;;;;;;;12.18;2.03;;;;;;;7.80;100.00;97764.50;5044889;28;20139;-43
2023/10/27 06:19:24;;;;;;;29.60;9.20;;;;;;;7.81;100.00;97766.03;5039384;28;20048;-43
2023/10/27 06:21:52;;;;;;;66.15;20.65;;;;;;;7.84;100.00;97769.97;5047425;28;20114;-43
2023/10/27 06:24:19;;;;;;;119.65;37.75;;;;;;;7.86;100.00;97762.88;5044114;28;20041;-50
2023/10/27 06:26:45;;;;;;;75.72;25.40;;;;;;;7.88;100.00;97776.25;5046113;28;20147;-43
2023/10/27 06:29:13;;;;;;;76.68;21.70;;;;;;;7.87;100.00;97764.47;5046821;28;20052;-43
2023/10/27 06:31:40;;;;;;;31.80;9.18;;;;;;;7.88;100.00;97766.03;5046742;28;20043;-44
2023/10/27 06:34:07;;;;;;;42.40;10.88;;;;;;;7.89;100.00;97764.84;5042063;28;20562;-43
2023/10/27 06:36:34;;;;;;;24.63;6.10;;;;;;;7.86;100.00;97767.63;5043286;28;20041;-44
2023/10/27 06:39:01;;;;;;;35.55;6.75;;;;;;;7.85;100.00;97766.84;5040198;28;20081;-45
2023/10/27 06:41:29;;;;;;;18.00;4.20;;;;;;;7.86;100.00;97767.63;5047672;28;20799;-44
2023/10/27 06:43:55;;;;;;;14.80;3.58;;;;;;;7.86;100.00;97762.88;5048001;28;20102;-42
2023/10/27 06:46:22;;;;;;;14.43;3.08;;;;;;;7.90;100.00;97769.16;5047905;28;20090;-44
2023/10/27 06:48:51;;;;;;;16.92;4.07;;;;;;;7.92;100.00;97769.53;5048670;28;20075;-43
2023/10/27 06:51:18;;;;;;;10.60;3.83;;;;;;;7.96;100.00;97772.28;5033274;28;20917;-42
2023/10/27 06:53:45;;;;;;;17.33;3.13;;;;;;;7.97;100.00;97760.88;5039298;28;20613;-43
2023/10/27 06:56:12;;;;;;;11.98;2.35;;;;;;;8.01;100.00;97765.59;5047391;28;20056;-43
2023/10/27 06:58:39;;;;;;;13.82;2.55;;;;;;;8.05;100.00;97774.63;5047492;28;20050;-42
2023/10/27 07:01:07;;;;;;;17.98;3.65;;;;;;;8.04;100.00;97764.78;5046119;28;20037;-44
2023/10/27 07:03:35;;;;;;;18.75;3.75;;;;;;;8.04;100.00;97773.84;5035723;28;20094;-42
2023/10/27 07:06:05;;;;;;;21.27;5.00;;;;;;;8.04;100.00;97770.28;5045723;28;20060;-44
2023/10/27 07:08:33;;;;;;;19.70;3.20;;;;;;;8.03;100.00;97772.25;5046064;28;20049;-45
2023/10/27 07:11:00;;;;;;;16.42;2.60;;;;;;;8.02;100.00;97770.72;5042709;28;20049;-43
2023/10/27 07:13:28;;;;;;;15.77;3.03;;;;;;;8.02;100.00;97780.94;5047232;28;20037;-42
2023/10/27 07:15:55;;;;;;;20.70;3.13;;;;;;;8.01;100.00;97782.09;5042983;28;20143;-43
2023/10/27 07:18:22;;;;;;;16.05;4.60;;;;;;;8.01;100.00;97779.34;5046494;28;20040;-43
2023/10/27 07:20:49;;;;;;;13.10;2.80;;;;;;;7.99;100.00;97783.28;5046415;28;20056;-47
2023/10/27 07:23:16;;;;;;;13.85;3.50;;;;;;;7.98;100.00;97784.50;5046084;28;20049;-43
2023/10/27 07:25:43;;;;;;;12.35;2.72;;;;;;;7.97;100.00;97787.63;5046229;28;20551;-42
2023/10/27 07:28:10;;;;;;;12.63;2.58;;;;;;;7.97;100.00;97785.66;5037854;28;20095;-44
2023/10/27 07:30:37;;;;;;;17.38;2.92;;;;;;;7.96;100.00;97789.63;5045385;28;20083;-44
2023/10/27 07:33:04;;;;;;;14.18;3.40;;;;;;;7.94;100.00;97786.47;5027753;28;20052;-43
2023/10/27 07:35:31;;;;;;;13.50;3.20;;;;;;;7.97;100.00;97790.38;5039982;28;20163;-42
2023/10/27 07:37:59;;;;;;;19.20;4.90;;;;;;;7.99;100.00;97793.53;5045127;28;20048;-44
2023/10/27 07:40:25;;;;;;;20.75;3.90;;;;;;;7.98;100.00;97789.22;5039047;28;20045;-43
2023/10/27 07:42:57;;;;;;;19.63;3.05;;;;;;;7.99;100.00;97788.78;5029581;28;20453;-43
2023/10/27 07:45:26;;;;;;;18.73;3.72;;;;;;;8.03;100.00;97796.25;5035226;28;20043;-43
2023/10/27 07:47:54;;;;;;;17.00;3.45;;;;;;;8.07;100.00;97797.84;5044908;28;20087;-45
2023/10/27 07:50:21;;;;;;;16.92;3.30;;;;;;;8.11;100.00;97801.34;5038419;28;20804;-43
2023/10/27 07:52:48;;;;;;;21.88;3.60;;;;;;;8.14;100.00;97797.81;5040065;28;20052;-42
2023/10/27 07:55:15;;;;;;;19.90;4.35;;;;;;;8.17;100.00;97801.72;5042236;28;20566;-41
2023/10/27 07:57:41;;;;;;;19.80;4.70;;;;;;;8.18;100.00;97795.03;5043855;28;20132;-43
2023/10/27 08:00:10;;;;;;;17.83;3.58;;;;;;;8.21;100.00;97795.00;5045586;28;20041;-43
2023/10/27 08:02:38;;;;;;;10.35;2.95;;;;;;;8.23;100.00;97792.66;5045334;28;20045;-44
2023/10/27 08:05:06;;;;;;;18.35;3.40;;;;;;;8.27;100.00;97803.66;5041703;28;20095;-46
2023/10/27 08:07:35;;;;;;;13.55;3.17;;;;;;;8.29;100.00;97793.03;5046125;28;20047;-43
2023/10/27 08:10:07;;;;;;;14.45;3.83;;;;;;;8.33;100.00;97802.06;5045644;28;20053;-43
2023/10/27 08:12:34;;;;;;;12.93;3.42;;;;;;;8.37;100.00;97808.34;5045505;28;20051;-43
2023/10/27 08:15:05;;;;;;;22.52;4.45;;;;;;;8.39;100.00;97815.03;5043846;28;20037;-44
2023/10/27 08:17:33;;;;;;;12.85;3.15;;;;;;;8.42;100.00;97813.44;5042206;28;20149;-43
2023/10/27 08:20:00;;;;;;;15.82;3.72;;;;;;;8.45;100.00;97816.19;5045903;28;20483;-42
2023/10/27 08:22:27;;;;;;;13.13;3.03;;;;;;;8.48;100.00;97811.84;5044209;28;20036;-42
2023/10/27 08:24:54;;;;;;;13.40;3.97;;;;;;;8.51;100.00;97816.53;5045751;28;20044;-42
2023/10/27 08:27:22;;;;;;;10.30;3.13;;;;;;;8.56;100.00;97799.56;5044616;28;20044;-46
2023/10/27 08:29:53;;;;;;;17.73;3.70;;;;;;;8.59;100.00;97804.28;5040418;28;20044;-43
2023/10/27 08:32:23;;;;;;;12.45;3.35;;;;;;;8.65;100.00;97812.91;5045457;28;20073;-44
2023/10/27 08:34:50;;;;;;;17.20;4.05;;;;;;;8.68;100.00;97807.41;5045096;28;20156;-47
2023/10/27 08:37:17;;;;;;;21.70;3.45;;;;;;;8.72;100.00;97808.13;5045121;28;20056;-45
2023/10/27 08:39:45;;;;;;;17.02;3.72;;;;;;;8.76;100.00;97813.66;5045304;28;20108;-44
2023/10/27 08:42:12;;;;;;;14.85;2.85;;;;;;;8.81;100.00;97816.75;5044560;28;20486;-46
2023/10/27 08:44:41;;;;;;;21.05;3.78;;;;;;;8.85;100.00;97809.22;5044211;28;20120;-45
2023/10/27 08:47:09;;;;;;;15.38;2.60;;;;;;;8.89;100.00;97807.25;5032477;28;20664;-44
2023/10/27 08:49:36;;;;;;;22.83;5.57;;;;;;;8.92;100.00;97814.69;5045142;28;20040;-47
2023/10/27 08:52:08;;;;;;;14.20;4.07;;;;;;;8.96;100.00;97818.22;5042611;28;20060;-45
2023/10/27 08:54:39;;;;;;;19.00;4.53;;;;;;;9.02;100.00;97821.34;5039491;28;20160;-44
2023/10/27 08:57:08;;;;;;;15.07;4.55;;;;;;;9.07;100.00;97818.94;5042204;28;20138;-49
2023/10/27 08:59:38;;;;;;;19.38;3.45;;;;;;;9.11;100.00;97814.16;5044471;28;20045;-44
2023/10/27 09:02:06;;;;;;;21.58;3.88;;;;;;;9.18;100.00;97816.09;5043172;28;20064;-43
2023/10/27 09:04:34;;;;;;;14.13;3.05;;;;;;;9.24;100.00;97817.19;5041388;28;20050;-42
2023/10/27 09:07:01;;;;;;;17.90;3.42;;;;;;;9.30;100.00;97820.31;5034950;28;20041;-43
2023/10/27 09:09:28;;;;;;;14.32;2.42;;;;;;;9.33;100.00;97812.00;5044884;28;20037;-44
2023/10/27 09:11:56;;;;;;;19.85;3.20;;;;;;;9.37;100.00;97826.56;5037064;28;20498;-43
2023/10/27 09:14:24;;;;;;;13.75;5.07;;;;;;;9.41;100.00;97821.78;5041742;28;20045;-44
2023/10/27 09:16:51;;;;;;;10.18;2.55;;;;;;;9.47;100.00;97820.16;5044843;28;20131;-45
2023/10/27 09:19:24;;;;;;;5.47;2.15;;;;;;;9.52;100.00;97811.44;5040974;28;20472;-44
2023/10/27 09:21:53;;;;;;;14.15;2.92;;;;;;;9.57;100.00;97816.53;5037965;28;20033;-44
2023/10/27 09:24:30;;;;;;;14.80;3.55;;;;;;;9.62;100.00;97818.03;5038508;28;20119;-45
2023/10/27 09:26:59;;;;;;;8.20;3.13;;;;;;;9.68;100.00;97824.69;5038664;28;20791;-43
2023/10/27 09:29:31;;;;;;;7.13;1.75;;;;;;;9.74;100.00;97817.53;5044151;28;20066;-42
2023/10/27 09:31:58;;;;;;;15.95;3.47;;;;;;;9.84;100.00;97824.94;5043134;28;20546;-42
2023/10/27 09:34:28;;;;;;;14.38;4.65;;;;;;;9.93;100.00;97814.16;5044673;28;20502;-44
2023/10/27 09:36:57;;;;;;;17.60;3.15;;;;;;;10.05;100.00;97821.16;5044441;28;20037;-44
2023/10/27 09:39:25;;;;;;;11.93;2.03;;;;;;;10.14;100.00;97819.47;5043790;28;20037;-43
2023/10/27 09:42:08;;;;;;;12.88;1.98;;;;;;;10.24;100.00;97818.59;5040147;28;20037;-45
2023/10/27 09:44:57;;;;;;;;;;;;;;;10.30;100.00;97822.44;5043155;28;20048;-47
2023/10/27 09:47:47;;;;;;;8.23;2.53;;;;;;;10.39;100.00;97825.50;5037967;28;20061;-44
2023/10/27 09:50:17;;;;;;;12.02;1.33;;;;;;;10.50;100.00;97825.34;5042308;28;20068;-43
2023/10/27 09:52:44;;;;;;;8.38;1.60;;;;;;;10.61;100.00;97827.97;5041607;28;20041;-43
2023/10/27 09:55:13;;;;;;;9.80;1.50;;;;;;;10.70;100.00;97817.94;5043617;28;20049;-43
2023/10/27 09:57:45;;;;;;;15.45;1.73;;;;;;;10.74;100.00;97818.69;5041932;28;20060;-42
2023/10/27 10:00:20;;;;;;;9.57;1.85;;;;;;;10.79;100.00;97820.22;5045641;28;20045;-44
2023/10/27 10:02:48;;;;;;;15.98;2.15;;;;;;;10.80;100.00;97821.78;5048245;28;20049;-42
2023/10/27 10:05:15;;;;;;;13.00;1.85;;;;;;;10.82;100.00;97824.91;5047885;28;20049;-42
2023/10/27 10:07:44;;;;;;;10.88;3.80;;;;;;;10.83;100.00;97815.38;5033439;28;20197;-44
2023/10/27 10:10:29;;;;;;;10.13;1.73;;;;;;;10.83;100.00;97818.94;5044027;28;20040;-43
2023/10/27 10:13:12;;;;;;;10.98;1.52;;;;;;;10.83;100.00;97812.63;5047314;28;20037;-43
2023/10/27 10:15:41;;;;;;;10.65;1.73;;;;;;;10.83;100.00;97816.19;5047348;28;20561;-42
2023/10/27 10:18:20;;;;;;;7.40;1.95;;;;;;;10.85;100.00;97813.78;5047975;28;20056;-42
2023/10/27 10:21:08;;;;;;;24.52;4.50;;;;;;;10.86;100.00;97815.34;5046609;28;20885;-43
2023/10/27 10:23:38;;;;;;;8.88;2.60;;;;;;;10.92;100.00;97812.91;5036724;28;20409;-43
2023/10/27 10:26:05;;;;;;;10.38;2.55;;;;;;;10.94;100.00;97810.47;5048175;28;20118;-44
2023/10/27 10:28:33;;;;;;;16.42;2.00;;;;;;;10.97;100.00;97815.19;5047842;28;20041;-43
2023/10/27 10:31:06;;;;;;;12.70;2.17;;;;;;;11.00;100.00;97815.16;5035242;28;20036;-43
2023/10/27 10:33:41;;;;;;;12.00;2.05;;;;;;;11.02;100.00;97814.72;5047809;28;20392;-43
2023/10/27 10:36:22;;;;;;;4.65;1.38;;;;;;;11.02;100.00;97814.72;5046140;28;20132;-42
2023/10/27 10:38:49;;;;;;;4.50;1.35;;;;;;;11.04;100.00;97814.31;5046836;28;20132;-45
2023/10/27 10:41:18;;;;;;;12.98;2.30;;;;;;;11.05;100.00;97813.88;5046831;28;20044;-43
2023/10/27 10:44:15;;;;;;;8.50;1.48;;;;;;;11.04;100.00;97815.06;5041766;28;20037;-44
2023/10/27 10:46:43;;;;;;;18.50;2.35;;;;;;;11.01;100.00;97815.94;5034425;28;20757;-43
2023/10/27 10:49:31;;;;;;;18.73;2.95;;;;;;;11.01;100.00;97810.41;5047341;28;20103;-43
2023/10/27 10:52:00;;;;;;;10.35;2.38;;;;;;;11.04;100.00;97812.28;5047456;28;20045;-43
2023/10/27 10:54:33;;;;;;;8.40;2.47;;;;;;;11.07;100.00;97811.47;5046739;28;20048;-44
2023/10/27 10:57:07;;;;;;;6.05;1.25;;;;;;;11.09;100.00;97806.31;5036421;28;20810;-44
2023/10/27 10:59:36;;;;;;;10.50;1.80;;;;;;;11.10;100.00;97810.63;5045389;28;20552;-43
2023/10/27 11:02:04;;;;;;;6.20;3.25;;;;;;;11.10;100.00;97812.59;5047212;28;20052;-43
2023/10/27 11:04:34;;;;;;;10.75;1.77;;;;;;;11.10;100.00;97818.94;5046505;28;20041;-45
2023/10/27 11:07:04;;;;;;;8.50;1.58;;;;;;;11.13;100.00;97807.03;5038310;28;20131;-46
2023/10/27 11:09:31;;;;;;;32.90;3.95;;;;;;;11.15;100.00;97801.84;5045950;28;20044;-42
2023/10/27 11:11:59;;;;;;;14.55;2.15;;;;;;;11.15;100.00;97801.84;5038105;28;20075;-43
2023/10/27 11:14:26;;;;;;;9.00;2.40;;;;;;;11.16;100.00;97806.19;5038204;28;20033;-42
2023/10/27 11:16:58;;;;;;;12.77;2.20;;;;;;;11.18;100.00;97801.00;5047284;28;20072;-43
2023/10/27 11:19:25;;;;;;;9.95;1.73;;;;;;;11.21;100.00;97802.94;5047035;28;20124;-43
2023/10/27 11:21:54;;;;;;;11.43;2.38;;;;;;;11.29;100.00;97803.59;5046118;28;20037;-45
2023/10/27 11:24:22;;;;;;;12.05;2.42;;;;;;;11.31;100.00;97801.19;5034524;28;20831;-44
2023/10/27 11:26:49;;;;;;;10.85;1.83;;;;;;;11.29;100.00;97804.38;5033486;28;20148;-42
2023/10/27 11:29:16;;;;;;;14.15;3.22;;;;;;;11.29;100.00;97815.47;5046125;28;20745;-44
2023/10/27 11:31:45;;;;;;;6.97;1.65;;;;;;;11.29;100.00;97809.94;5045903;28;20045;-43